sensor_id;sensor_type;location;lat;lon;timestamp;temperature;humidity
63537;DHT22;49686;51.880;5.632;2023-04-06T00:02:19;0.40;99.90
63537;DHT22;49686;51.880;5.632;2023-04-06T00:04:48;0.50;99.90
63537;DHT22;49686;51.880;5.632;2023-04-06T00:07:14;0.40;99.90
63537;DHT22;49686;51.880;5.632;2023-04-06T00:09:41;0.30;99.90
63537;DHT22;49686;51.880;5.632;2023-04-06T00:12:08;0.30;99.90
63537;DHT22;49686;51.880;5.632;2023-04-06T00:14:35;0.30;99.90
63537;DHT22;49686;51.880;5.632;2023-04-06T00:17:02;0.20;99.90
63537;DHT22;49686;51.880;5.632;2023-04-06T00:19:29;0.40;99.90
63537;DHT22;49686;51.880;5.632;2023-04-06T00:21:57;0.50;99.90
63537;DHT22;49686;51.880;5.632;2023-04-06T00:24:24;0.50;99.90
63537;DHT22;49686;51.880;5.632;2023-04-06T00:26:50;0.40;99.90
63537;DHT22;49686;51.880;5.632;2023-04-06T00:29:17;0.40;99.90
63537;DHT22;49686;51.880;5.632;2023-04-06T00:31:44;0.40;99.90
63537;DHT22;49686;51.880;5.632;2023-04-06T00:34:11;0.40;99.90
63537;DHT22;49686;51.880;5.632;2023-04-06T00:36:38;0.20;99.90
63537;DHT22;49686;51.880;5.632;2023-04-06T00:39:06;0.30;99.90
63537;DHT22;49686;51.880;5.632;2023-04-06T00:41:34;0.30;99.90
63537;DHT22;49686;51.880;5.632;2023-04-06T00:44:00;0.10;99.90
63537;DHT22;49686;51.880;5.632;2023-04-06T00:46:28;0.10;99.90
63537;DHT22;49686;51.880;5.632;2023-04-06T00:48:56;0.10;99.90
63537;DHT22;49686;51.880;5.632;2023-04-06T00:51:23;0.00;99.90
63537;DHT22;49686;51.880;5.632;2023-04-06T00:53:50;0.00;99.90
63537;DHT22;49686;51.880;5.632;2023-04-06T00:56:18;0.10;99.90
63537;DHT22;49686;51.880;5.632;2023-04-06T00:58:45;0.00;99.90
63537;DHT22;49686;51.880;5.632;2023-04-06T01:01:12;-0.10;99.90
63537;DHT22;49686;51.880;5.632;2023-04-06T01:03:38;-0.10;99.90
63537;DHT22;49686;51.880;5.632;2023-04-06T01:06:05;-0.10;99.90
63537;DHT22;49686;51.880;5.632;2023-04-06T01:08:32;-0.10;99.90
63537;DHT22;49686;51.880;5.632;2023-04-06T01:10:59;-0.20;99.90
63537;DHT22;49686;51.880;5.632;2023-04-06T01:13:27;-0.10;99.90
63537;DHT22;49686;51.880;5.632;2023-04-06T01:15:54;-0.20;99.90
63537;DHT22;49686;51.880;5.632;2023-04-06T01:18:25;-0.20;99.90
63537;DHT22;49686;51.880;5.632;2023-04-06T01:20:55;-0.30;99.90
63537;DHT22;49686;51.880;5.632;2023-04-06T01:23:23;-0.20;99.90
63537;DHT22;49686;51.880;5.632;2023-04-06T01:25:50;-0.20;99.90
63537;DHT22;49686;51.880;5.632;2023-04-06T01:28:16;-0.20;99.90
63537;DHT22;49686;51.880;5.632;2023-04-06T01:30:43;0.00;99.90
63537;DHT22;49686;51.880;5.632;2023-04-06T01:33:10;0.10;99.90
63537;DHT22;49686;51.880;5.632;2023-04-06T01:35:37;0.10;99.90
63537;DHT22;49686;51.880;5.632;2023-04-06T01:38:04;0.10;99.90
63537;DHT22;49686;51.880;5.632;2023-04-06T01:40:32;0.00;99.90
63537;DHT22;49686;51.880;5.632;2023-04-06T01:42:59;0.10;99.90
63537;DHT22;49686;51.880;5.632;2023-04-06T01:45:25;0.10;99.90
63537;DHT22;49686;51.880;5.632;2023-04-06T01:47:53;0.00;99.90
63537;DHT22;49686;51.880;5.632;2023-04-06T01:50:20;0.00;99.90
63537;DHT22;49686;51.880;5.632;2023-04-06T01:52:47;0.10;99.90
63537;DHT22;49686;51.880;5.632;2023-04-06T01:55:14;0.10;99.90
63537;DHT22;49686;51.880;5.632;2023-04-06T01:57:42;0.00;99.90
63537;DHT22;49686;51.880;5.632;2023-04-06T02:00:10;0.20;99.90
63537;DHT22;49686;51.880;5.632;2023-04-06T02:02:37;0.40;99.90
63537;DHT22;49686;51.880;5.632;2023-04-06T02:05:05;0.30;99.90
63537;DHT22;49686;51.880;5.632;2023-04-06T02:07:32;0.40;99.90
63537;DHT22;49686;51.880;5.632;2023-04-06T02:09:59;0.40;99.90
63537;DHT22;49686;51.880;5.632;2023-04-06T02:12:25;0.30;99.90
63537;DHT22;49686;51.880;5.632;2023-04-06T02:14:54;0.30;99.90
63537;DHT22;49686;51.880;5.632;2023-04-06T02:17:20;0.30;99.90
63537;DHT22;49686;51.880;5.632;2023-04-06T02:19:49;0.30;99.90
63537;DHT22;49686;51.880;5.632;2023-04-06T02:22:16;0.30;99.90
63537;DHT22;49686;51.880;5.632;2023-04-06T02:24:43;0.40;99.90
63537;DHT22;49686;51.880;5.632;2023-04-06T02:27:10;0.40;99.90
63537;DHT22;49686;51.880;5.632;2023-04-06T02:29:37;0.40;99.90
63537;DHT22;49686;51.880;5.632;2023-04-06T02:32:05;0.50;99.90
63537;DHT22;49686;51.880;5.632;2023-04-06T02:34:33;0.60;99.90
63537;DHT22;49686;51.880;5.632;2023-04-06T02:36:59;0.60;99.90
63537;DHT22;49686;51.880;5.632;2023-04-06T02:39:26;0.60;99.90
63537;DHT22;49686;51.880;5.632;2023-04-06T02:41:53;0.70;99.90
63537;DHT22;49686;51.880;5.632;2023-04-06T02:44:19;0.70;99.90
63537;DHT22;49686;51.880;5.632;2023-04-06T02:46:46;0.80;99.90
63537;DHT22;49686;51.880;5.632;2023-04-06T02:49:14;0.80;99.90
63537;DHT22;49686;51.880;5.632;2023-04-06T02:51:41;0.80;99.90
63537;DHT22;49686;51.880;5.632;2023-04-06T02:54:08;0.80;99.90
63537;DHT22;49686;51.880;5.632;2023-04-06T02:56:35;0.90;99.90
63537;DHT22;49686;51.880;5.632;2023-04-06T02:59:02;0.90;99.90
63537;DHT22;49686;51.880;5.632;2023-04-06T03:01:29;0.90;99.90
63537;DHT22;49686;51.880;5.632;2023-04-06T03:03:55;0.80;99.90
63537;DHT22;49686;51.880;5.632;2023-04-06T03:06:24;0.90;99.90
63537;DHT22;49686;51.880;5.632;2023-04-06T03:08:50;0.90;99.90
63537;DHT22;49686;51.880;5.632;2023-04-06T03:11:17;1.00;99.90
63537;DHT22;49686;51.880;5.632;2023-04-06T03:13:44;1.00;99.90
63537;DHT22;49686;51.880;5.632;2023-04-06T03:16:12;1.00;99.90
63537;DHT22;49686;51.880;5.632;2023-04-06T03:18:39;1.00;99.90
63537;DHT22;49686;51.880;5.632;2023-04-06T03:21:06;1.00;99.90
63537;DHT22;49686;51.880;5.632;2023-04-06T03:23:34;0.90;99.90
63537;DHT22;49686;51.880;5.632;2023-04-06T03:26:01;0.90;99.90
63537;DHT22;49686;51.880;5.632;2023-04-06T03:28:28;1.00;99.90
63537;DHT22;49686;51.880;5.632;2023-04-06T03:30:54;1.00;99.90
63537;DHT22;49686;51.880;5.632;2023-04-06T03:33:22;1.00;99.90
63537;DHT22;49686;51.880;5.632;2023-04-06T03:35:49;1.00;99.90
63537;DHT22;49686;51.880;5.632;2023-04-06T03:38:15;1.10;99.90
63537;DHT22;49686;51.880;5.632;2023-04-06T03:40:44;1.20;99.90
63537;DHT22;49686;51.880;5.632;2023-04-06T03:43:10;1.30;99.90
63537;DHT22;49686;51.880;5.632;2023-04-06T03:45:40;1.30;99.90
63537;DHT22;49686;51.880;5.632;2023-04-06T03:48:07;1.30;99.90
63537;DHT22;49686;51.880;5.632;2023-04-06T03:50:34;1.30;99.90
63537;DHT22;49686;51.880;5.632;2023-04-06T03:53:00;1.30;99.90
63537;DHT22;49686;51.880;5.632;2023-04-06T03:55:27;1.40;99.90
63537;DHT22;49686;51.880;5.632;2023-04-06T03:57:55;1.30;99.90
63537;DHT22;49686;51.880;5.632;2023-04-06T04:00:23;1.30;99.90
63537;DHT22;49686;51.880;5.632;2023-04-06T04:02:50;1.30;99.90
63537;DHT22;49686;51.880;5.632;2023-04-06T04:05:17;1.40;99.90
63537;DHT22;49686;51.880;5.632;2023-04-06T04:07:43;1.40;99.90
63537;DHT22;49686;51.880;5.632;2023-04-06T04:10:10;1.30;99.90
63537;DHT22;49686;51.880;5.632;2023-04-06T04:12:37;1.40;99.90
63537;DHT22;49686;51.880;5.632;2023-04-06T04:15:06;1.30;99.90
63537;DHT22;49686;51.880;5.632;2023-04-06T04:17:33;1.30;99.90
63537;DHT22;49686;51.880;5.632;2023-04-06T04:20:03;1.30;99.90
63537;DHT22;49686;51.880;5.632;2023-04-06T04:22:30;1.20;99.90
63537;DHT22;49686;51.880;5.632;2023-04-06T04:24:57;1.20;99.90
63537;DHT22;49686;51.880;5.632;2023-04-06T04:27:24;1.10;99.90
63537;DHT22;49686;51.880;5.632;2023-04-06T04:29:50;1.10;99.90
63537;DHT22;49686;51.880;5.632;2023-04-06T04:32:20;1.00;99.90
63537;DHT22;49686;51.880;5.632;2023-04-06T04:34:47;0.90;99.90
63537;DHT22;49686;51.880;5.632;2023-04-06T04:37:20;0.90;99.90
63537;DHT22;49686;51.880;5.632;2023-04-06T04:39:46;0.90;99.90
63537;DHT22;49686;51.880;5.632;2023-04-06T04:42:13;0.90;99.90
63537;DHT22;49686;51.880;5.632;2023-04-06T04:44:40;0.80;99.90
63537;DHT22;49686;51.880;5.632;2023-04-06T04:47:07;0.80;99.90
63537;DHT22;49686;51.880;5.632;2023-04-06T04:49:35;0.80;99.90
63537;DHT22;49686;51.880;5.632;2023-04-06T04:52:02;0.70;99.90
63537;DHT22;49686;51.880;5.632;2023-04-06T04:54:29;0.70;99.90
63537;DHT22;49686;51.880;5.632;2023-04-06T04:56:55;0.70;99.90
63537;DHT22;49686;51.880;5.632;2023-04-06T04:59:22;0.70;99.90
63537;DHT22;49686;51.880;5.632;2023-04-06T05:01:49;0.80;99.90
63537;DHT22;49686;51.880;5.632;2023-04-06T05:04:22;0.70;99.90
63537;DHT22;49686;51.880;5.632;2023-04-06T05:06:50;0.60;99.90
63537;DHT22;49686;51.880;5.632;2023-04-06T05:09:17;0.70;99.90
63537;DHT22;49686;51.880;5.632;2023-04-06T05:11:44;0.60;99.90
63537;DHT22;49686;51.880;5.632;2023-04-06T05:14:13;0.70;99.90
63537;DHT22;49686;51.880;5.632;2023-04-06T05:16:40;0.70;99.90
63537;DHT22;49686;51.880;5.632;2023-04-06T05:19:08;0.70;99.90
63537;DHT22;49686;51.880;5.632;2023-04-06T05:21:35;0.70;99.90
63537;DHT22;49686;51.880;5.632;2023-04-06T05:24:07;0.80;99.90
63537;DHT22;49686;51.880;5.632;2023-04-06T05:26:34;0.90;99.90
63537;DHT22;49686;51.880;5.632;2023-04-06T05:29:01;0.90;99.90
63537;DHT22;49686;51.880;5.632;2023-04-06T05:31:28;1.00;99.90
63537;DHT22;49686;51.880;5.632;2023-04-06T05:33:56;1.10;99.90
63537;DHT22;49686;51.880;5.632;2023-04-06T05:36:22;1.20;99.90
63537;DHT22;49686;51.880;5.632;2023-04-06T05:38:50;1.30;99.90
63537;DHT22;49686;51.880;5.632;2023-04-06T05:41:18;1.40;99.90
63537;DHT22;49686;51.880;5.632;2023-04-06T05:43:44;1.50;99.90
63537;DHT22;49686;51.880;5.632;2023-04-06T05:46:11;1.60;99.90
63537;DHT22;49686;51.880;5.632;2023-04-06T05:48:38;1.70;99.90
63537;DHT22;49686;51.880;5.632;2023-04-06T05:51:05;1.80;99.90
63537;DHT22;49686;51.880;5.632;2023-04-06T05:53:32;1.90;99.90
63537;DHT22;49686;51.880;5.632;2023-04-06T05:56:00;2.00;99.90
63537;DHT22;49686;51.880;5.632;2023-04-06T05:58:29;2.10;99.90
63537;DHT22;49686;51.880;5.632;2023-04-06T06:00:57;2.20;99.90
63537;DHT22;49686;51.880;5.632;2023-04-06T06:03:24;2.30;99.90
63537;DHT22;49686;51.880;5.632;2023-04-06T06:05:51;2.40;99.90
63537;DHT22;49686;51.880;5.632;2023-04-06T06:08:17;2.50;99.90
63537;DHT22;49686;51.880;5.632;2023-04-06T06:10:44;2.70;99.90
63537;DHT22;49686;51.880;5.632;2023-04-06T06:13:11;2.90;99.90
63537;DHT22;49686;51.880;5.632;2023-04-06T06:15:39;3.10;99.90
63537;DHT22;49686;51.880;5.632;2023-04-06T06:18:06;3.30;99.90
63537;DHT22;49686;51.880;5.632;2023-04-06T06:20:33;3.40;99.90
63537;DHT22;49686;51.880;5.632;2023-04-06T06:22:59;3.50;99.90
63537;DHT22;49686;51.880;5.632;2023-04-06T06:25:26;3.60;99.90
63537;DHT22;49686;51.880;5.632;2023-04-06T06:27:53;3.70;99.90
63537;DHT22;49686;51.880;5.632;2023-04-06T06:30:20;3.70;99.90
63537;DHT22;49686;51.880;5.632;2023-04-06T06:32:50;3.60;99.90
63537;DHT22;49686;51.880;5.632;2023-04-06T06:35:20;3.60;99.90
63537;DHT22;49686;51.880;5.632;2023-04-06T06:37:46;3.60;99.90
63537;DHT22;49686;51.880;5.632;2023-04-06T06:40:13;3.60;99.90
63537;DHT22;49686;51.880;5.632;2023-04-06T06:42:40;3.60;99.90
63537;DHT22;49686;51.880;5.632;2023-04-06T06:45:08;3.50;99.90
63537;DHT22;49686;51.880;5.632;2023-04-06T06:47:34;3.60;99.90
63537;DHT22;49686;51.880;5.632;2023-04-06T06:50:03;3.60;99.90
63537;DHT22;49686;51.880;5.632;2023-04-06T06:52:31;3.70;99.90
63537;DHT22;49686;51.880;5.632;2023-04-06T06:54:57;3.80;99.90
63537;DHT22;49686;51.880;5.632;2023-04-06T06:57:26;3.80;99.90
63537;DHT22;49686;51.880;5.632;2023-04-06T06:59:52;3.60;99.90
63537;DHT22;49686;51.880;5.632;2023-04-06T07:02:19;3.60;99.90
63537;DHT22;49686;51.880;5.632;2023-04-06T07:04:48;3.80;99.90
63537;DHT22;49686;51.880;5.632;2023-04-06T07:07:16;3.90;99.90
63537;DHT22;49686;51.880;5.632;2023-04-06T07:09:43;4.10;99.90
63537;DHT22;49686;51.880;5.632;2023-04-06T07:12:12;4.50;99.90
63537;DHT22;49686;51.880;5.632;2023-04-06T07:14:39;4.50;99.90
63537;DHT22;49686;51.880;5.632;2023-04-06T07:17:06;4.70;99.90
63537;DHT22;49686;51.880;5.632;2023-04-06T07:19:33;5.10;99.90
63537;DHT22;49686;51.880;5.632;2023-04-06T07:22:00;4.90;99.90
63537;DHT22;49686;51.880;5.632;2023-04-06T07:24:28;4.90;99.90
63537;DHT22;49686;51.880;5.632;2023-04-06T07:26:55;5.10;99.90
63537;DHT22;49686;51.880;5.632;2023-04-06T07:29:21;5.00;99.90
63537;DHT22;49686;51.880;5.632;2023-04-06T07:31:48;4.60;99.90
63537;DHT22;49686;51.880;5.632;2023-04-06T07:34:15;4.40;99.90
63537;DHT22;49686;51.880;5.632;2023-04-06T07:36:42;4.30;99.90
63537;DHT22;49686;51.880;5.632;2023-04-06T07:39:09;4.10;99.90
63537;DHT22;49686;51.880;5.632;2023-04-06T07:41:37;4.20;99.90
63537;DHT22;49686;51.880;5.632;2023-04-06T07:44:04;4.20;99.90
63537;DHT22;49686;51.880;5.632;2023-04-06T07:46:31;4.30;99.90
63537;DHT22;49686;51.880;5.632;2023-04-06T07:49:00;4.30;99.90
63537;DHT22;49686;51.880;5.632;2023-04-06T07:51:27;4.30;99.90
63537;DHT22;49686;51.880;5.632;2023-04-06T07:53:54;4.40;99.90
63537;DHT22;49686;51.880;5.632;2023-04-06T07:56:21;4.50;99.90
63537;DHT22;49686;51.880;5.632;2023-04-06T07:58:49;4.70;99.90
63537;DHT22;49686;51.880;5.632;2023-04-06T08:01:19;4.70;99.90
63537;DHT22;49686;51.880;5.632;2023-04-06T08:03:46;4.80;99.90
63537;DHT22;49686;51.880;5.632;2023-04-06T08:06:14;4.80;99.90
63537;DHT22;49686;51.880;5.632;2023-04-06T08:08:41;5.00;99.90
63537;DHT22;49686;51.880;5.632;2023-04-06T08:11:08;5.10;99.90
63537;DHT22;49686;51.880;5.632;2023-04-06T08:13:35;5.00;99.90
63537;DHT22;49686;51.880;5.632;2023-04-06T08:16:03;5.10;99.90
63537;DHT22;49686;51.880;5.632;2023-04-06T08:18:30;5.20;99.90
63537;DHT22;49686;51.880;5.632;2023-04-06T08:20:57;5.20;99.90
63537;DHT22;49686;51.880;5.632;2023-04-06T08:23:24;5.30;99.90
63537;DHT22;49686;51.880;5.632;2023-04-06T08:25:51;5.40;99.90
63537;DHT22;49686;51.880;5.632;2023-04-06T08:28:17;5.60;99.90
63537;DHT22;49686;51.880;5.632;2023-04-06T08:30:44;5.60;99.90
63537;DHT22;49686;51.880;5.632;2023-04-06T08:33:12;5.70;99.90
63537;DHT22;49686;51.880;5.632;2023-04-06T08:35:41;6.10;99.90
63537;DHT22;49686;51.880;5.632;2023-04-06T08:38:08;6.30;99.90
63537;DHT22;49686;51.880;5.632;2023-04-06T08:40:36;6.60;99.90
63537;DHT22;49686;51.880;5.632;2023-04-06T08:43:06;6.90;99.90
63537;DHT22;49686;51.880;5.632;2023-04-06T08:45:33;6.80;99.90
63537;DHT22;49686;51.880;5.632;2023-04-06T08:48:00;6.90;99.90
63537;DHT22;49686;51.880;5.632;2023-04-06T08:50:29;7.20;99.90
63537;DHT22;49686;51.880;5.632;2023-04-06T08:52:56;7.00;99.90
63537;DHT22;49686;51.880;5.632;2023-04-06T08:55:24;7.00;99.90
63537;DHT22;49686;51.880;5.632;2023-04-06T08:57:51;6.80;99.90
63537;DHT22;49686;51.880;5.632;2023-04-06T09:00:18;6.90;99.90
63537;DHT22;49686;51.880;5.632;2023-04-06T09:02:46;6.80;99.90
63537;DHT22;49686;51.880;5.632;2023-04-06T09:05:13;7.10;99.90
63537;DHT22;49686;51.880;5.632;2023-04-06T09:07:42;6.70;99.90
63537;DHT22;49686;51.880;5.632;2023-04-06T09:10:09;6.80;99.90
63537;DHT22;49686;51.880;5.632;2023-04-06T09:12:35;6.90;99.90
63537;DHT22;49686;51.880;5.632;2023-04-06T09:15:03;6.90;99.90
63537;DHT22;49686;51.880;5.632;2023-04-06T09:17:31;7.00;99.90
63537;DHT22;49686;51.880;5.632;2023-04-06T09:19:59;7.00;99.90
63537;DHT22;49686;51.880;5.632;2023-04-06T09:22:35;7.20;99.90
63537;DHT22;49686;51.880;5.632;2023-04-06T09:25:05;7.00;99.90
63537;DHT22;49686;51.880;5.632;2023-04-06T09:27:33;7.50;99.90
63537;DHT22;49686;51.880;5.632;2023-04-06T09:30:05;7.50;99.90
63537;DHT22;49686;51.880;5.632;2023-04-06T09:32:32;7.50;99.90
63537;DHT22;49686;51.880;5.632;2023-04-06T09:35:06;7.50;99.90
63537;DHT22;49686;51.880;5.632;2023-04-06T09:37:33;7.80;99.90
63537;DHT22;49686;51.880;5.632;2023-04-06T09:40:04;7.80;99.90
63537;DHT22;49686;51.880;5.632;2023-04-06T09:42:32;7.80;99.90
63537;DHT22;49686;51.880;5.632;2023-04-06T09:44:58;7.80;99.90
63537;DHT22;49686;51.880;5.632;2023-04-06T09:47:25;7.70;99.90
63537;DHT22;49686;51.880;5.632;2023-04-06T09:49:57;8.10;99.90
63537;DHT22;49686;51.880;5.632;2023-04-06T09:52:26;7.90;99.90
63537;DHT22;49686;51.880;5.632;2023-04-06T09:54:55;7.40;99.90
63537;DHT22;49686;51.880;5.632;2023-04-06T09:57:31;7.40;99.90
63537;DHT22;49686;51.880;5.632;2023-04-06T10:00:03;7.30;99.90
63537;DHT22;49686;51.880;5.632;2023-04-06T10:02:37;7.60;99.90
63537;DHT22;49686;51.880;5.632;2023-04-06T10:05:09;7.80;99.90
63537;DHT22;49686;51.880;5.632;2023-04-06T10:07:40;7.90;99.90
63537;DHT22;49686;51.880;5.632;2023-04-06T10:10:25;7.80;99.90
63537;DHT22;49686;51.880;5.632;2023-04-06T10:12:54;7.90;99.90
63537;DHT22;49686;51.880;5.632;2023-04-06T10:15:21;7.90;99.90
63537;DHT22;49686;51.880;5.632;2023-04-06T10:17:49;7.80;99.90
63537;DHT22;49686;51.880;5.632;2023-04-06T10:20:20;8.30;99.90
63537;DHT22;49686;51.880;5.632;2023-04-06T10:22:54;8.30;99.90
63537;DHT22;49686;51.880;5.632;2023-04-06T10:25:28;8.50;99.90
63537;DHT22;49686;51.880;5.632;2023-04-06T10:30:28;8.40;99.90
63537;DHT22;49686;51.880;5.632;2023-04-06T10:32:55;8.70;99.90
63537;DHT22;49686;51.880;5.632;2023-04-06T10:35:22;8.90;99.90
63537;DHT22;49686;51.880;5.632;2023-04-06T10:37:54;8.90;99.90
63537;DHT22;49686;51.880;5.632;2023-04-06T10:40:27;9.00;99.90
63537;DHT22;49686;51.880;5.632;2023-04-06T10:42:54;8.80;99.90
63537;DHT22;49686;51.880;5.632;2023-04-06T10:45:25;8.50;99.90
63537;DHT22;49686;51.880;5.632;2023-04-06T10:47:53;7.80;99.90
63537;DHT22;49686;51.880;5.632;2023-04-06T10:50:21;7.50;99.90
63537;DHT22;49686;51.880;5.632;2023-04-06T10:52:58;7.40;99.90
63537;DHT22;49686;51.880;5.632;2023-04-06T10:55:26;7.20;99.90
63537;DHT22;49686;51.880;5.632;2023-04-06T10:57:53;7.30;99.90
63537;DHT22;49686;51.880;5.632;2023-04-06T11:00:20;7.00;99.90
63537;DHT22;49686;51.880;5.632;2023-04-06T11:02:49;7.20;99.90
63537;DHT22;49686;51.880;5.632;2023-04-06T11:05:16;7.30;99.90
63537;DHT22;49686;51.880;5.632;2023-04-06T11:07:44;7.00;99.90
63537;DHT22;49686;51.880;5.632;2023-04-06T11:10:11;7.10;99.90
63537;DHT22;49686;51.880;5.632;2023-04-06T11:12:45;7.20;99.90
63537;DHT22;49686;51.880;5.632;2023-04-06T11:15:18;6.90;99.90
63537;DHT22;49686;51.880;5.632;2023-04-06T11:17:45;7.30;99.90
63537;DHT22;49686;51.880;5.632;2023-04-06T11:20:13;7.10;99.90
63537;DHT22;49686;51.880;5.632;2023-04-06T11:22:48;7.40;99.90
63537;DHT22;49686;51.880;5.632;2023-04-06T11:25:15;7.20;99.90
63537;DHT22;49686;51.880;5.632;2023-04-06T11:27:43;7.10;99.90
63537;DHT22;49686;51.880;5.632;2023-04-06T11:30:10;7.10;99.90
63537;DHT22;49686;51.880;5.632;2023-04-06T11:32:40;7.00;99.90
63537;DHT22;49686;51.880;5.632;2023-04-06T11:35:07;7.00;99.90
63537;DHT22;49686;51.880;5.632;2023-04-06T11:37:36;6.90;99.90
63537;DHT22;49686;51.880;5.632;2023-04-06T11:40:03;6.80;99.90
63537;DHT22;49686;51.880;5.632;2023-04-06T11:42:30;6.70;99.90
63537;DHT22;49686;51.880;5.632;2023-04-06T11:44:58;6.70;99.90
63537;DHT22;49686;51.880;5.632;2023-04-06T11:47:28;6.60;99.90
63537;DHT22;49686;51.880;5.632;2023-04-06T11:49:55;6.40;99.90
63537;DHT22;49686;51.880;5.632;2023-04-06T11:52:24;6.20;99.90
63537;DHT22;49686;51.880;5.632;2023-04-06T11:54:53;6.20;99.90
63537;DHT22;49686;51.880;5.632;2023-04-06T11:57:21;6.00;99.90
63537;DHT22;49686;51.880;5.632;2023-04-06T11:59:50;5.90;99.90
63537;DHT22;49686;51.880;5.632;2023-04-06T12:02:19;5.90;99.90
63537;DHT22;49686;51.880;5.632;2023-04-06T12:04:49;5.90;99.90
63537;DHT22;49686;51.880;5.632;2023-04-06T12:07:16;6.00;99.90
63537;DHT22;49686;51.880;5.632;2023-04-06T12:09:43;6.20;99.90
63537;DHT22;49686;51.880;5.632;2023-04-06T12:12:12;6.20;99.90
63537;DHT22;49686;51.880;5.632;2023-04-06T12:14:38;6.20;99.90
63537;DHT22;49686;51.880;5.632;2023-04-06T12:17:05;6.20;99.90
63537;DHT22;49686;51.880;5.632;2023-04-06T12:19:32;6.10;99.90
63537;DHT22;49686;51.880;5.632;2023-04-06T12:21:59;6.20;99.90
63537;DHT22;49686;51.880;5.632;2023-04-06T12:24:25;6.10;99.90
63537;DHT22;49686;51.880;5.632;2023-04-06T12:26:53;6.00;99.90
63537;DHT22;49686;51.880;5.632;2023-04-06T12:29:36;6.10;99.90
63537;DHT22;49686;51.880;5.632;2023-04-06T12:32:03;6.10;99.90
63537;DHT22;49686;51.880;5.632;2023-04-06T12:34:30;6.10;99.90
63537;DHT22;49686;51.880;5.632;2023-04-06T12:36:57;6.10;99.90
63537;DHT22;49686;51.880;5.632;2023-04-06T12:39:24;6.20;99.90
63537;DHT22;49686;51.880;5.632;2023-04-06T12:41:51;6.10;99.90
63537;DHT22;49686;51.880;5.632;2023-04-06T12:44:18;6.10;99.90
63537;DHT22;49686;51.880;5.632;2023-04-06T12:46:46;6.10;99.90
63537;DHT22;49686;51.880;5.632;2023-04-06T12:49:13;6.10;99.90
63537;DHT22;49686;51.880;5.632;2023-04-06T12:51:40;6.20;99.90
63537;DHT22;49686;51.880;5.632;2023-04-06T12:54:07;6.20;99.90
63537;DHT22;49686;51.880;5.632;2023-04-06T12:56:33;6.20;99.90
63537;DHT22;49686;51.880;5.632;2023-04-06T12:59:00;6.10;99.90
63537;DHT22;49686;51.880;5.632;2023-04-06T13:01:27;6.10;99.90
63537;DHT22;49686;51.880;5.632;2023-04-06T13:03:55;6.10;99.90
63537;DHT22;49686;51.880;5.632;2023-04-06T13:06:22;6.00;99.90
63537;DHT22;49686;51.880;5.632;2023-04-06T13:08:49;6.10;99.90
63537;DHT22;49686;51.880;5.632;2023-04-06T13:11:16;6.10;99.90
63537;DHT22;49686;51.880;5.632;2023-04-06T13:13:43;6.00;99.90
63537;DHT22;49686;51.880;5.632;2023-04-06T13:16:10;6.00;99.90
63537;DHT22;49686;51.880;5.632;2023-04-06T13:18:36;5.90;99.90
63537;DHT22;49686;51.880;5.632;2023-04-06T13:21:05;5.90;99.90
63537;DHT22;49686;51.880;5.632;2023-04-06T13:23:32;5.90;99.90
63537;DHT22;49686;51.880;5.632;2023-04-06T13:26:01;5.80;99.90
63537;DHT22;49686;51.880;5.632;2023-04-06T13:28:28;5.90;99.90
63537;DHT22;49686;51.880;5.632;2023-04-06T13:30:57;5.90;99.90
63537;DHT22;49686;51.880;5.632;2023-04-06T13:33:25;5.90;99.90
63537;DHT22;49686;51.880;5.632;2023-04-06T13:35:52;5.90;99.90
63537;DHT22;49686;51.880;5.632;2023-04-06T13:38:20;5.90;99.90
63537;DHT22;49686;51.880;5.632;2023-04-06T13:40:49;5.80;99.90
63537;DHT22;49686;51.880;5.632;2023-04-06T13:43:15;5.80;99.90
63537;DHT22;49686;51.880;5.632;2023-04-06T13:45:49;5.80;99.90
63537;DHT22;49686;51.880;5.632;2023-04-06T13:48:16;5.80;99.90
63537;DHT22;49686;51.880;5.632;2023-04-06T13:50:42;5.80;99.90
63537;DHT22;49686;51.880;5.632;2023-04-06T13:53:09;5.80;99.90
63537;DHT22;49686;51.880;5.632;2023-04-06T13:55:37;5.80;99.90
63537;DHT22;49686;51.880;5.632;2023-04-06T13:58:04;5.80;99.90
63537;DHT22;49686;51.880;5.632;2023-04-06T14:00:31;5.80;99.90
63537;DHT22;49686;51.880;5.632;2023-04-06T14:02:58;5.80;99.90
63537;DHT22;49686;51.880;5.632;2023-04-06T14:05:25;5.70;99.90
63537;DHT22;49686;51.880;5.632;2023-04-06T14:07:51;5.50;99.90
63537;DHT22;49686;51.880;5.632;2023-04-06T14:10:18;5.50;99.90
63537;DHT22;49686;51.880;5.632;2023-04-06T14:12:46;5.60;99.90
63537;DHT22;49686;51.880;5.632;2023-04-06T14:15:13;5.60;99.90
63537;DHT22;49686;51.880;5.632;2023-04-06T14:17:40;5.60;99.90
63537;DHT22;49686;51.880;5.632;2023-04-06T14:20:08;5.60;99.90
63537;DHT22;49686;51.880;5.632;2023-04-06T14:22:35;5.60;99.90
63537;DHT22;49686;51.880;5.632;2023-04-06T14:25:02;5.70;99.90
63537;DHT22;49686;51.880;5.632;2023-04-06T14:27:29;5.70;99.90
63537;DHT22;49686;51.880;5.632;2023-04-06T14:29:57;5.70;99.90
63537;DHT22;49686;51.880;5.632;2023-04-06T14:34:15;5.90;99.90
63537;DHT22;49686;51.880;5.632;2023-04-06T14:36:42;5.80;99.90
63537;DHT22;49686;51.880;5.632;2023-04-06T14:39:10;5.70;99.90
63537;DHT22;49686;51.880;5.632;2023-04-06T14:41:41;5.80;99.90
63537;DHT22;49686;51.880;5.632;2023-04-06T14:44:08;5.70;99.90
63537;DHT22;49686;51.880;5.632;2023-04-06T14:46:34;5.70;99.90
63537;DHT22;49686;51.880;5.632;2023-04-06T14:49:01;5.70;99.90
63537;DHT22;49686;51.880;5.632;2023-04-06T14:51:29;5.70;99.90
63537;DHT22;49686;51.880;5.632;2023-04-06T14:53:57;5.70;99.90
63537;DHT22;49686;51.880;5.632;2023-04-06T14:56:24;5.80;99.90
63537;DHT22;49686;51.880;5.632;2023-04-06T14:58:51;5.70;99.90
63537;DHT22;49686;51.880;5.632;2023-04-06T15:01:21;5.70;99.90
63537;DHT22;49686;51.880;5.632;2023-04-06T15:03:48;5.70;99.90
63537;DHT22;49686;51.880;5.632;2023-04-06T15:06:18;5.60;99.90
63537;DHT22;49686;51.880;5.632;2023-04-06T15:08:46;5.50;99.90
63537;DHT22;49686;51.880;5.632;2023-04-06T15:11:14;5.50;99.90
63537;DHT22;49686;51.880;5.632;2023-04-06T15:13:41;5.40;99.90
63537;DHT22;49686;51.880;5.632;2023-04-06T15:16:08;5.40;99.90
63537;DHT22;49686;51.880;5.632;2023-04-06T15:18:35;5.50;99.90
63537;DHT22;49686;51.880;5.632;2023-04-06T15:21:02;5.50;99.90
63537;DHT22;49686;51.880;5.632;2023-04-06T15:23:31;5.50;99.90
63537;DHT22;49686;51.880;5.632;2023-04-06T15:26:00;5.50;99.90
63537;DHT22;49686;51.880;5.632;2023-04-06T15:28:27;5.50;99.90
63537;DHT22;49686;51.880;5.632;2023-04-06T15:30:54;5.50;99.90
63537;DHT22;49686;51.880;5.632;2023-04-06T15:33:21;5.50;99.90
63537;DHT22;49686;51.880;5.632;2023-04-06T15:35:48;5.60;99.90
63537;DHT22;49686;51.880;5.632;2023-04-06T15:38:15;5.60;99.90
63537;DHT22;49686;51.880;5.632;2023-04-06T15:40:43;5.50;99.90
63537;DHT22;49686;51.880;5.632;2023-04-06T15:43:12;5.60;99.90
63537;DHT22;49686;51.880;5.632;2023-04-06T15:45:40;5.50;99.90
63537;DHT22;49686;51.880;5.632;2023-04-06T15:48:07;5.40;99.90
63537;DHT22;49686;51.880;5.632;2023-04-06T15:50:34;5.40;99.90
63537;DHT22;49686;51.880;5.632;2023-04-06T15:53:01;5.30;99.90